Pronóstico
Mapa Interactivo
Aviación
Climatología
Hidrometeorología
Agrometeorología
Estaciones Automáticas
Transparencia
OMM WMO
Portada
Institución
Noticias
Imágenes
Tsunami
Historial
Boletines y Alertas
Contactos
Buscar Contenidos
Informe del Tiempo

     

VUELOS DE BAJO NIVEL DESDE SUPERFICIE HASTA 24,000 PIES.

 

 
VALIDO DESDE 111200Z ...…………………….…………………HASTA 120000Z
SALIDA  Y  PUESTA  DEL  SOL  07:01 AM / 18:04 .
  
SANTO DOMINGO FIR...PORT-AU-PRINCE FIR . . . ISLANDS...SKC. OCNL SCT020. OCNL VIS 3-5SM BR INLAND. BECMG 1416 SCT020. OTLK...
VFR.WTRS...NE 1/3...SCT015-025. OCNL SKC. OTLK...VFR. SW 2/3...SCT015-025. OCNL SCT020 BKN050 TOP 090. WDLY SCT SHRA.
OTLK...VFR TSRA SHRA. ICE AND FRZLVL...NO SGFNT ICE EXP OUTSIDE CNVTV ACT.FRZLVL...GLFMEX...145-160.CARIB...135-175.
W ATLC...N 25N...NE 1/3...070-110.RMNDR...110-150.S 25N...140-170..TURB...NO SGFNT TURB EXP OUTSIDE CNVTV ACT.

 

5,000 FT.

10,000 FT.

18,000 FT.

24,000 FT.

MDSD

0510KT+16ºC

2105KT+08ºC

2015KT-06ºC

2320KT-18ºC

MTPP

3010KT+16ºC

2605KT+08ºC

2315KT-06ºC

2520KT-18ºC

TJSJ

1610KT+16ºC

1610KT+09ºC

1815KT-05ºC

2015KT-18ºC

 

 

 

 

 

TAF MDPP 111000Z 1112/1212 09008KT 9999 FEW017=

TAF MDST 111000Z 1112/1212 00000KT 9999 SCT016 PROB30 1112/1114 4000 BR BKN016 BECMG 1115/1117 12008K=

TAF MDPC 111000Z 1112/1212 00000KT 9999 SCT018 BECMG 1112/1014 13006KT=

TAF MDBH 111000Z 1112/1212 27005KT 9999 SCT020 SCT080 BECMG 1117/1119 13012KT=

TAF MDJB 111000Z 1112/1212 18010KT 9999 SCT020=

TAF MDSD 111000Z 1112/1212 15010KT 9999 SCT020=

TAF MDLR 111000Z 1112/1212 00000KT 9999 SCT018 BECMG 1115/1117 16012KT=

TAF MDCY 111000Z 1112/1212 14010KT 9999 SCT018 PROB30 1116/1122 7000 SHRA BKN016 SCT070 BECMG 1123/1201 00000KT=

KMIA 110857Z 1109/1212 32006KT P6SM BKN250 FM111500 32014KT P6SM SKC FM120000 34008KT P6SM SCT030

KJFK 110830Z 1109/1212 36006KT P6SM SKC FM111300 VRB04KT P6SM SKC FM111800 24007KT P6SM FEW030 FM120300 27008KT P6SM SCT030 SCT250 FM120700 30010KT P6SM SCT030 SCT250

TJSJ 110536Z 1106/1206 18003KT P6SM FEW030 FEW050 FM111400 08012G20KT P6SM FEW040 FM112200 10008KT P6SM FEW030

MUHA 110500Z 1106/1206 01008KT 9000 SCT035

TAF AMD MUGM 1109/1207 35006KT 9999 FEW020 SCT035 BKN050 QNH3000INS BECMG 1118/1120 18010KT FEW035 SCT050 QNH3002INS TEMPO 1121/1203 34012KT 6000 SHRA SCT005 BKN010 OVC020 BECMG 1204/1206 34011KT SCT010 BKN020 QNH3006INS T21/1112Z T30/1118Z AMD 0901 FN00199

TAF TNCC 111000Z 1112/1212 10015KT 9999 SCT020

TAF MKJP 110515Z 1106/1206 35005KT 9999 FEW024 SCT034 BECMG 1114/1116 15010KT BECMG 1201/1203 35005KT

POR: P HENRIQUEZ A 11 de DICIEMBRE del 2018-